Time;durP1;ratioP1;P1;durP2;ratioP2;P2;SDS_P1;SDS_P2;PMS_P1;PMS_P2;Temp;Humidity;BMP_temperature;BMP_pressure;BME280_temperature;BME280_humidity;BME280_pressure;Samples;Min_cycle;Max_cycle;Signal;HPM_P1;HPM_P2
2023/07/03 07:11:31;;;;;;;2250.00;999.90;;;;;;;18.56;61.36;96420.56;2090725;28;20561;-58
2023/07/03 07:12:32;;;;;;;2250.00;999.90;;;;;;;19.10;60.66;96416.22;2090427;28;20188;-58
2023/07/03 07:13:34;;;;;;;2250.00;999.90;;;;;;;19.19;59.70;96417.25;2091197;28;20287;-58
2023/07/03 07:14:36;;;;;;;2250.00;999.90;;;;;;;19.31;59.66;96423.34;2086866;28;20702;-58
2023/07/03 07:15:39;;;;;;;2250.00;999.90;;;;;;;19.66;59.13;96417.72;2087212;28;20196;-58
2023/07/03 07:16:42;;;;;;;2250.00;999.90;;;;;;;19.43;58.70;96419.66;2087090;28;20223;-58
2023/07/03 07:17:44;;;;;;;2250.00;999.90;;;;;;;19.40;59.35;96433.13;2086651;28;20242;-58
2023/07/03 07:18:57;;;;;;;2250.00;999.90;;;;;;;19.45;58.35;96432.75;2086208;28;20192;-58
2023/07/03 07:19:59;;;;;;;2250.00;999.90;;;;;;;19.83;58.62;96423.41;2086225;28;20196;-58
2023/07/03 07:21:01;;;;;;;2250.00;999.90;;;;;;;19.82;57.51;96424.34;2087043;28;20238;-58
2023/07/03 07:22:02;;;;;;;2250.00;999.90;;;;;;;19.61;58.50;96432.31;2086993;28;21172;-58
2023/07/03 07:23:04;;;;;;;2250.00;999.90;;;;;;;19.37;58.62;96431.59;2087141;28;20296;-58
2023/07/03 07:24:18;;;;;;;2250.00;999.90;;;;;;;19.35;59.30;96422.97;2086800;28;20224;-58
2023/07/03 07:25:20;;;;;;;2250.00;999.90;;;;;;;19.67;59.07;96423.84;2086808;28;20245;-58
2023/07/03 07:26:24;;;;;;;2250.00;999.90;;;;;;;19.92;59.30;96427.06;2087080;28;20203;-58
2023/07/03 07:27:25;;;;;;;2250.00;999.90;;;;;;;20.00;58.75;96433.41;2086938;28;20239;-58
2023/07/03 07:28:27;;;;;;;2250.00;999.90;;;;;;;19.56;58.56;96438.81;2087003;28;20193;-58
2023/07/03 07:29:29;;;;;;;2250.00;999.90;;;;;;;19.44;59.59;96429.28;2086564;28;20220;-58
2023/07/03 07:30:31;;;;;;;2250.00;999.90;;;;;;;19.66;59.58;96430.13;2086873;28;20184;-58
2023/07/03 07:31:36;;;;;;;2250.00;999.90;;;;;;;19.71;59.25;96423.44;2086984;28;20663;-58
2023/07/03 07:32:42;;;;;;;2250.00;999.90;;;;;;;19.41;59.86;96433.03;2086903;28;20196;-58
2023/07/03 07:38:42;;;;;;;2250.00;999.90;;;;;;;18.91;61.95;96423.00;2084250;28;20559;-59
2023/07/03 07:41:02;;;;;;;2250.00;999.90;;;;;;;19.02;61.80;96416.84;2083693;28;20902;-58
2023/07/03 07:42:04;;;;;;;2250.00;999.90;;;;;;;19.21;61.65;96429.41;2079353;28;20201;-58
2023/07/03 07:43:07;;;;;;;2250.00;999.90;;;;;;;19.35;61.33;96422.97;2079587;28;20249;-58
2023/07/03 07:44:08;;;;;;;2250.00;999.90;;;;;;;19.40;61.67;96427.84;2074755;28;20225;-58
2023/07/03 07:59:47;;;;;;;2250.00;999.90;;;;;;;18.60;63.64;96430.78;2099988;27;20577;-58
2023/07/03 08:00:51;;;;;;;2250.00;999.90;;;;;;;18.65;63.65;96438.34;2096732;28;20196;-58
2023/07/03 08:01:53;;;;;;;2250.00;999.90;;;;;;;18.88;63.48;96432.97;2097575;28;20608;-58
2023/07/03 08:02:54;;;;;;;2250.00;999.90;;;;;;;19.22;62.84;96440.81;2095323;28;20283;-58
2023/07/03 08:03:56;;;;;;;2250.00;999.90;;;;;;;19.67;61.59;96432.63;2096105;28;20278;-57
2023/07/03 08:04:58;;;;;;;2250.00;999.90;;;;;;;19.69;61.18;96438.66;2095448;28;20241;-58
2023/07/03 08:06:03;;;;;;;2250.00;999.90;;;;;;;19.93;60.92;96431.41;2096929;28;20225;-58
2023/07/03 08:07:05;;;;;;;2250.00;999.90;;;;;;;19.75;60.84;96431.97;2098931;28;20195;-58
2023/07/03 08:08:06;;;;;;;2250.00;999.90;;;;;;;19.80;61.01;96435.06;2098978;28;20654;-58
2023/07/03 08:09:08;;;;;;;2250.00;999.90;;;;;;;19.55;61.07;96441.59;2098434;28;20219;-58
2023/07/03 08:10:10;;;;;;;2250.00;999.90;;;;;;;19.53;61.53;96443.56;2095135;28;20290;-58
2023/07/03 08:11:11;;;;;;;2250.00;999.90;;;;;;;19.50;61.06;96439.38;2097491;28;20195;-58
2023/07/03 08:12:13;;;;;;;2250.00;999.90;;;;;;;19.92;61.00;96433.19;2099247;28;20199;-58
2023/07/03 08:13:14;;;;;;;2250.00;999.90;;;;;;;20.13;59.65;96441.13;2099137;28;20200;-58
2023/07/03 08:14:16;;;;;;;2250.00;999.90;;;;;;;20.14;59.94;96436.69;2096073;28;20272;-58
2023/07/03 08:15:18;;;;;;;2250.00;999.90;;;;;;;19.79;59.42;96435.22;2096985;28;20288;-58
2023/07/03 08:16:19;;;;;;;2250.00;999.90;;;;;;;19.66;60.17;96440.72;2099360;28;20207;-57
2023/07/03 08:17:21;;;;;;;2250.00;999.90;;;;;;;19.78;60.53;96446.78;2095221;28;20204;-58
2023/07/03 08:18:23;;;;;;;2250.00;999.90;;;;;;;19.84;59.32;96446.28;2095700;28;20204;-58
2023/07/03 08:19:24;;;;;;;2250.00;999.90;;;;;;;19.83;59.65;96442.81;2099771;28;20666;-58
2023/07/03 08:20:26;;;;;;;2250.00;999.90;;;;;;;19.97;59.16;96451.38;2098005;28;20199;-58
2023/07/03 08:21:27;;;;;;;2250.00;999.90;;;;;;;20.05;59.19;96444.44;2095113;28;20226;-58
2023/07/03 08:22:29;;;;;;;2250.00;999.90;;;;;;;19.96;58.76;96447.88;2095662;28;20203;-58
2023/07/03 08:23:31;;;;;;;2250.00;999.90;;;;;;;19.66;59.11;96446.84;2097545;28;20280;-57
2023/07/03 08:24:32;;;;;;;2250.00;999.90;;;;;;;19.53;59.45;96447.03;2098091;28;20797;-58
2023/07/03 08:25:34;;;;;;;2250.00;999.90;;;;;;;19.69;59.46;96446.59;2098576;28;20207;-58
2023/07/03 08:26:36;;;;;;;2250.00;999.90;;;;;;;19.53;60.13;96444.41;2099057;28;20663;-58
2023/07/03 08:27:37;;;;;;;2250.00;999.90;;;;;;;19.30;60.13;96442.81;2099205;28;20200;-58
2023/07/03 08:28:38;;;;;;;2250.00;999.90;;;;;;;19.38;59.84;96448.34;2098680;28;20313;-58
2023/07/03 08:30:51;;;;;;;2250.00;999.90;;;;;;;19.39;59.48;96453.50;2083677;28;20530;-58
2023/07/03 08:31:52;;;;;;;2250.00;999.90;;;;;;;19.41;59.65;96446.28;2079774;28;20226;-58
2023/07/03 08:32:54;;;;;;;2250.00;999.90;;;;;;;19.52;59.29;96447.19;2080874;28;20193;-58
2023/07/03 08:33:56;;;;;;;2250.00;999.90;;;;;;;20.09;57.98;96452.09;2088397;28;20467;-58
2023/07/03 08:34:57;;;;;;;2250.00;999.90;;;;;;;20.05;58.36;96440.97;2082199;28;20204;-58
2023/07/03 08:36:02;;;;;;;2250.00;999.90;;;;;;;20.13;58.02;96448.25;2068942;28;20257;-58
2023/07/03 08:37:07;;;;;;;2250.00;999.90;;;;;;;19.90;58.56;96437.81;2068930;28;20577;-58
2023/07/03 08:38:09;;;;;;;2250.00;999.90;;;;;;;20.41;57.87;96446.66;2071811;28;20527;-58
2023/07/03 08:39:11;;;;;;;2250.00;999.90;;;;;;;20.67;57.32;96441.72;2072601;28;20221;-58
2023/07/03 08:40:18;;;;;;;919.47;580.55;;;;;;;20.38;56.78;96444.28;2072780;28;20756;-58
2023/07/03 08:41:19;;;;;;;1387.22;758.13;;;;;;;20.48;56.73;96444.31;2068740;28;20281;-58
2023/07/03 08:42:27;;;;;;;652.38;586.72;;;;;;;20.17;56.88;96437.22;2072613;28;20285;-58
2023/07/03 08:43:41;;;;;;;544.95;489.45;;;;;;;19.65;58.15;96437.22;2072862;28;20252;-58
2023/07/03 08:44:43;;;;;;;2250.00;999.90;;;;;;;19.76;58.37;96446.91;2072820;28;20220;-58
2023/07/03 08:45:46;;;;;;;2250.00;999.90;;;;;;;20.08;58.05;96439.84;2070078;28;20313;-58
2023/07/03 08:46:49;;;;;;;489.77;436.65;;;;;;;20.30;56.94;96446.75;2069926;28;20641;-58
2023/07/03 08:48:12;;;;;;;2250.00;999.90;;;;;;;20.11;56.89;96444.88;2073050;28;20836;-58
2023/07/03 08:49:18;;;;;;;1057.82;942.05;;;;;;;19.72;55.82;96432.25;2071540;28;20224;-58
2023/07/03 08:50:23;;;;;;;603.45;503.17;;;;;;;19.73;56.45;96437.41;2070926;28;20225;-58
2023/07/03 08:51:39;;;;;;;515.03;389.60;;;;;;;19.45;56.88;96446.00;2069439;28;20572;-58
2023/07/03 08:52:49;;;;;;;363.42;254.93;;;;;;;19.63;56.78;96443.59;2071604;28;20256;-58
2023/07/03 08:53:54;;;;;;;933.10;836.60;;;;;;;19.64;55.37;96442.66;2071879;28;20198;-58
2023/07/03 08:54:57;;;;;;;967.60;809.45;;;;;;;19.39;55.50;96434.97;2073560;28;20225;-58
2023/07/03 08:56:14;;;;;;;582.78;515.42;;;;;;;19.50;56.02;96449.97;2071722;28;20277;-58
2023/07/03 08:57:16;;;;;;;727.92;648.03;;;;;;;19.62;56.04;96441.91;2075449;28;20197;-58
2023/07/03 08:58:17;;;;;;;665.47;589.28;;;;;;;19.96;55.27;96439.09;2072574;28;20538;-58
2023/07/03 08:59:19;;;;;;;722.97;648.67;;;;;;;19.84;55.56;96433.88;2073169;28;20232;-58
2023/07/03 09:00:21;;;;;;;645.45;575.75;;;;;;;19.88;55.57;96440.59;2069422;28;20710;-58
2023/07/03 09:01:31;;;;;;;1012.33;904.50;;;;;;;19.83;54.87;96444.59;2073318;28;20653;-58
2023/07/03 09:02:45;;;;;;;1094.13;977.97;;;;;;;19.98;54.99;96437.16;2070013;28;20194;-58
2023/07/03 09:04:00;;;;;;;1047.75;939.88;;;;;;;20.62;53.94;96435.97;2068765;28;20197;-58
2023/07/03 09:05:05;;;;;;;1047.38;944.22;;;;;;;20.76;52.83;96437.44;2075822;28;20200;-58
2023/07/03 09:06:28;;;;;;;1295.32;999.90;;;;;;;20.91;52.73;96445.81;2068542;28;20213;-58
2023/07/03 09:07:46;;;;;;;1197.60;999.90;;;;;;;20.83;52.86;96445.69;2067971;28;20205;-58
2023/07/03 09:08:55;;;;;;;1246.13;999.90;;;;;;;21.00;52.53;96449.47;2070095;28;20203;-58
2023/07/03 09:10:22;;;;;;;1110.10;991.30;;;;;;;21.15;52.62;96448.09;2072956;28;20203;-58
2023/07/03 09:11:28;;;;;;;1306.95;999.90;;;;;;;20.87;52.85;96436.47;2070468;28;20549;-58
2023/07/03 09:12:49;;;;;;;1028.55;928.60;;;;;;;21.35;51.50;96445.44;2070542;28;20204;-59
2023/07/03 09:13:55;;;;;;;838.63;755.40;;;;;;;21.28;51.40;96439.00;2067869;28;20285;-59
2023/07/03 09:15:03;;;;;;;892.83;813.75;;;;;;;21.49;51.21;96433.53;2068869;28;20211;-59
2023/07/03 09:16:19;;;;;;;814.65;738.17;;;;;;;21.60;49.84;96440.53;2071192;28;20198;-59
2023/07/03 09:17:23;;;;;;;947.83;854.60;;;;;;;21.37;50.05;96443.47;2071544;28;20204;-59
2023/07/03 09:18:35;;;;;;;804.53;727.90;;;;;;;21.58;49.94;96443.31;2070954;28;20194;-58
2023/07/03 09:19:44;;;;;;;899.60;822.95;;;;;;;20.98;50.29;96430.19;2073787;28;20229;-58
2023/07/03 09:20:47;;;;;;;1052.35;956.83;;;;;;;21.27;50.82;96427.53;2072198;28;20197;-61
2023/07/03 09:21:55;;;;;;;1055.90;960.53;;;;;;;21.71;50.16;96445.69;2072249;28;20277;-61
2023/07/03 09:23:12;;;;;;;865.15;792.75;;;;;;;21.41;49.90;96433.38;2073719;28;20568;-61
2023/07/03 09:24:22;;;;;;;424.85;391.25;;;;;;;21.09;50.77;96429.22;2071735;28;20321;-60
2023/07/03 09:25:46;;;;;;;703.20;638.55;;;;;;;21.21;50.17;96441.38;2071468;28;20201;-61
2023/07/03 09:26:57;;;;;;;488.88;450.58;;;;;;;21.40;50.76;96442.34;2073109;28;20197;-61
2023/07/03 09:28:01;;;;;;;618.28;572.42;;;;;;;21.56;50.30;96434.69;2073050;28;20197;-61
2023/07/03 09:29:05;;;;;;;607.05;555.70;;;;;;;21.53;50.64;96435.78;2073391;28;20358;-59
2023/07/03 09:30:12;;;;;;;885.03;812.22;;;;;;;21.74;50.01;96433.94;2075312;28;20197;-59
2023/07/03 09:31:16;;;;;;;573.60;529.75;;;;;;;21.53;50.08;96440.22;2070739;28;20202;-59
2023/07/03 09:32:24;;;;;;;321.33;294.75;;;;;;;21.99;49.28;96435.97;2070840;28;20233;-59
2023/07/03 09:33:26;;;;;;;18.75;6.60;;;;;;;21.63;48.98;96438.44;2071511;28;20242;-59
2023/07/03 09:34:27;;;;;;;28.05;10.63;;;;;;;21.59;49.48;96439.69;2073268;28;20242;-59
2023/07/03 09:35:35;;;;;;;22.77;6.43;;;;;;;21.35;49.71;96443.59;2073646;28;20210;-59
2023/07/03 09:36:41;;;;;;;75.43;68.28;;;;;;;21.51;49.22;96437.72;2074306;28;20229;-59
2023/07/03 09:37:50;;;;;;;34.35;22.65;;;;;;;21.27;50.36;96434.66;2069849;28;20198;-59
2023/07/03 09:38:51;;;;;;;14.30;5.70;;;;;;;21.34;49.69;96436.63;2070291;28;20240;-59
2023/07/03 09:39:53;;;;;;;14.98;4.90;;;;;;;21.33;49.74;96445.56;2070432;28;20194;-59
2023/07/03 09:40:55;;;;;;;19.27;5.88;;;;;;;21.07;50.20;96442.63;2069188;28;20645;-59
2023/07/03 09:42:07;;;;;;;19.55;6.57;;;;;;;20.96;50.62;96438.31;2067007;28;20268;-59
2023/07/03 09:43:14;;;;;;;20.35;9.63;;;;;;;21.62;49.64;96433.25;2063198;28;20610;-59
2023/07/03 09:44:17;;;;;;;19.92;5.78;;;;;;;21.81;49.13;96432.38;2068521;28;20217;-59
2023/07/03 09:45:23;;;;;;;13.20;4.78;;;;;;;21.78;47.72;96438.00;2061787;28;20197;-59
2023/07/03 09:46:29;;;;;;;18.13;5.25;;;;;;;21.31;48.23;96436.91;2064559;28;20687;-59
2023/07/03 09:47:30;;;;;;;21.15;4.30;;;;;;;21.14;49.07;96430.50;2072682;28;20292;-59
2023/07/03 09:48:34;;;;;;;19.42;6.45;;;;;;;21.21;48.68;96438.72;2071458;28;20892;-59
2023/07/03 09:49:36;;;;;;;19.65;5.10;;;;;;;21.15;49.55;96447.25;2066312;28;20614;-59
2023/07/03 09:50:39;;;;;;;16.08;4.35;;;;;;;21.17;48.95;96443.47;2062138;28;20202;-59
2023/07/03 09:51:58;;;;;;;18.50;4.93;;;;;;;20.76;48.65;96445.41;2064919;28;20210;-59
2023/07/03 09:53:02;;;;;;;27.05;5.05;;;;;;;20.56;48.70;96431.22;2066727;28;20198;-59
2023/07/03 09:54:22;;;;;;;10.43;3.85;;;;;;;20.57;49.54;96435.56;2065425;28;20313;-58
2023/07/03 09:55:26;;;;;;;15.70;4.30;;;;;;;20.75;49.67;96440.22;2066207;28;20519;-59
2023/07/03 09:56:29;;;;;;;13.93;4.20;;;;;;;20.70;49.84;96444.13;2068416;28;20261;-59
2023/07/03 09:57:33;;;;;;;20.95;5.93;;;;;;;20.74;50.38;96442.03;2065858;28;20194;-59
2023/07/03 09:58:36;;;;;;;16.73;5.18;;;;;;;20.82;50.48;96442.19;2066708;28;20531;-59
2023/07/03 09:59:38;;;;;;;16.33;6.35;;;;;;;21.01;50.09;96444.03;2067640;28;20684;-59
2023/07/03 10:00:45;;;;;;;15.13;4.78;;;;;;;21.17;50.16;96440.00;2065594;28;20292;-59
2023/07/03 10:01:55;;;;;;;13.95;3.90;;;;;;;20.90;49.91;96441.50;2062332;28;20198;-59
2023/07/03 10:03:00;;;;;;;13.32;3.75;;;;;;;20.91;49.78;96447.66;2066543;28;20207;-59
2023/07/03 10:04:06;;;;;;;14.43;4.45;;;;;;;20.77;49.70;96449.69;2065993;28;20233;-59
2023/07/03 10:05:16;;;;;;;13.13;4.40;;;;;;;20.79;50.03;96445.13;2062321;28;20240;-59
2023/07/03 10:06:23;;;;;;;13.00;4.05;;;;;;;20.93;50.42;96451.00;2065125;28;20195;-59
2023/07/03 10:07:25;;;;;;;13.50;4.70;;;;;;;21.15;50.05;96457.84;2065868;28;20304;-59
2023/07/03 10:08:27;;;;;;;10.50;3.78;;;;;;;20.97;49.72;96447.91;2065847;28;20267;-59
2023/07/03 10:09:34;;;;;;;12.25;4.30;;;;;;;21.11;49.44;96451.16;2064343;28;20222;-59
2023/07/03 10:10:39;;;;;;;11.18;4.00;;;;;;;21.22;49.64;96453.69;2068080;28;20197;-59
2023/07/03 10:11:50;;;;;;;12.95;4.18;;;;;;;21.15;49.37;96453.41;2068573;28;20198;-59
2023/07/03 10:12:58;;;;;;;10.07;3.40;;;;;;;20.94;49.98;96466.78;2067479;28;20664;-59
2023/07/03 10:14:00;;;;;;;13.50;4.15;;;;;;;20.96;49.70;96456.88;2065483;28;20197;-59
2023/07/03 10:15:10;;;;;;;12.27;3.60;;;;;;;20.72;49.70;96454.59;2061912;28;20195;-59
2023/07/03 10:16:14;;;;;;;10.80;3.25;;;;;;;20.50;50.09;96463.59;2068064;28;20285;-59
2023/07/03 10:17:22;;;;;;;8.50;2.70;;;;;;;20.26;50.84;96466.56;2067872;28;20209;-59
2023/07/03 10:18:29;;;;;;;9.98;3.80;;;;;;;20.20;51.33;96446.72;2068922;28;20199;-58
2023/07/03 10:19:34;;;;;;;16.80;3.70;;;;;;;20.22;51.37;96460.69;2063334;28;20663;-59
2023/07/03 10:20:43;;;;;;;12.95;3.30;;;;;;;20.40;51.91;96471.50;2064166;28;20195;-59
2023/07/03 10:21:45;;;;;;;13.77;3.63;;;;;;;20.37;52.03;96458.53;2055956;28;20206;-59
2023/07/03 10:22:49;;;;;;;64.68;58.30;;;;;;;20.45;51.90;96463.16;2056544;28;20428;-59
2023/07/03 10:23:51;;;;;;;16.95;6.38;;;;;;;20.34;52.10;96464.06;2064196;28;20194;-59
2023/07/03 10:24:55;;;;;;;60.50;53.28;;;;;;;20.61;52.08;96463.47;2067704;28;20690;-59
2023/07/03 10:26:04;;;;;;;32.47;25.90;;;;;;;20.59;52.23;96465.41;2066779;28;20190;-59
2023/07/03 10:27:07;;;;;;;110.13;101.43;;;;;;;20.81;52.10;96468.84;2064673;28;20282;-59
2023/07/03 10:28:14;;;;;;;224.95;208.68;;;;;;;20.89;51.82;96466.38;2066831;28;20257;-59
2023/07/03 10:29:28;;;;;;;113.75;104.60;;;;;;;21.11;52.22;96475.06;2064406;28;20747;-59
2023/07/03 10:30:33;;;;;;;45.85;38.72;;;;;;;21.57;50.93;96467.38;2063133;28;20321;-59
2023/07/03 10:31:58;;;;;;;79.18;71.97;;;;;;;21.40;50.96;96467.09;2061204;28;20386;-59
2023/07/03 10:33:03;;;;;;;16.48;5.70;;;;;;;21.35;51.21;96469.31;2062249;28;20253;-59
2023/07/03 10:34:12;;;;;;;20.15;7.63;;;;;;;21.35;51.14;96467.50;2062676;28;20249;-59
2023/07/03 10:35:22;;;;;;;21.10;7.00;;;;;;;21.27;51.18;96475.34;2065846;28;20214;-59
2023/07/03 10:36:28;;;;;;;14.18;4.97;;;;;;;21.38;51.26;96471.69;2065569;28;20692;-59
2023/07/03 10:37:43;;;;;;;23.60;5.15;;;;;;;21.21;51.39;96470.59;2063136;28;20249;-59
2023/07/03 10:39:05;;;;;;;18.73;5.90;;;;;;;21.43;51.61;96469.44;2062557;28;20288;-59
2023/07/03 10:40:17;;;;;;;19.58;6.38;;;;;;;21.76;50.76;96482.47;2066063;28;20249;-59
2023/07/03 10:41:30;;;;;;;24.83;7.30;;;;;;;21.91;50.03;96488.19;2060753;28;20278;-59
2023/07/03 10:42:37;;;;;;;13.45;4.72;;;;;;;21.87;49.59;96487.63;2070765;28;20228;-59
2023/07/03 10:43:45;;;;;;;13.70;4.25;;;;;;;21.83;50.03;96484.41;2073558;28;20249;-59
2023/07/03 10:44:52;;;;;;;15.55;4.47;;;;;;;21.65;50.33;96484.28;2064788;28;20225;-59
2023/07/03 10:45:54;;;;;;;19.45;5.00;;;;;;;21.59;51.20;96478.72;2065510;28;20240;-59
2023/07/03 10:47:27;;;;;;;19.17;5.47;;;;;;;21.55;51.49;96480.81;2071600;28;20226;-58
2023/07/03 10:48:33;;;;;;;24.83;5.40;;;;;;;21.15;52.18;96487.06;2068495;28;20198;-59
2023/07/03 10:49:37;;;;;;;21.23;6.00;;;;;;;21.44;51.81;96494.22;2064902;28;20230;-59
2023/07/03 10:50:50;;;;;;;30.20;7.43;;;;;;;21.60;51.06;96488.34;2067004;28;20337;-59
2023/07/03 10:52:17;;;;;;;22.98;5.63;;;;;;;21.65;50.75;96480.81;2067181;28;20302;-59
2023/07/03 10:53:37;;;;;;;20.17;5.28;;;;;;;21.67;50.96;96492.13;2068571;28;20202;-59
2023/07/03 10:54:51;;;;;;;18.08;5.63;;;;;;;21.62;51.03;96491.72;2068090;28;20259;-59
2023/07/03 10:56:02;;;;;;;19.02;5.90;;;;;;;21.00;51.97;96484.81;2061986;28;20189;-60
2023/07/03 10:57:08;;;;;;;77.15;68.80;;;;;;;20.99;52.57;96484.97;2069844;28;20220;-60
2023/07/03 10:58:54;;;;;;;928.20;851.10;;;;;;;21.61;52.68;96490.03;2070802;28;20198;-60
2023/07/03 10:59:59;;;;;;;448.00;413.38;;;;;;;22.06;51.50;96488.56;2065309;28;20304;-60
2023/07/03 11:01:08;;;;;;;865.13;794.13;;;;;;;22.28;51.87;96484.69;2064387;28;20206;-60
2023/07/03 11:02:22;;;;;;;317.70;292.38;;;;;;;22.08;51.13;96487.44;2066897;28;20220;-59
2023/07/03 11:04:00;;;;;;;554.88;512.88;;;;;;;22.07;52.31;96490.22;2065580;28;20198;-59
2023/07/03 11:05:42;;;;;;;51.03;36.20;;;;;;;22.04;51.86;96477.22;2063536;28;20261;-59
2023/07/03 11:07:25;;;;;;;18.55;6.57;;;;;;;21.85;51.76;96482.44;2065507;28;20198;-59
2023/07/03 11:08:43;;;;;;;34.42;17.58;;;;;;;21.78;52.97;96488.47;2065564;28;20263;-58
2023/07/03 11:10:09;;;;;;;151.02;138.27;;;;;;;21.59;53.67;96486.69;2065009;28;20230;-59
2023/07/03 11:11:33;;;;;;;602.72;557.83;;;;;;;21.73;53.25;96485.41;2062614;28;20206;-59
2023/07/03 11:12:49;;;;;;;605.10;557.47;;;;;;;21.46;53.99;96481.63;2065918;28;20198;-59
2023/07/03 11:14:05;;;;;;;783.50;720.33;;;;;;;21.32;53.76;96485.56;2067435;28;20832;-58
2023/07/03 11:15:28;;;;;;;377.77;348.30;;;;;;;21.07;53.82;96484.28;2061826;28;20282;-58
2023/07/03 11:17:04;;;;;;;958.63;876.22;;;;;;;21.15;54.45;96487.91;2067744;28;20198;-59
2023/07/03 11:18:24;;;;;;;927.38;846.38;;;;;;;20.91;54.83;96488.28;2067274;28;20194;-59
2023/07/03 11:19:46;;;;;;;996.63;909.17;;;;;;;21.01;54.67;96486.50;2063128;28;20728;-59
2023/07/03 11:21:10;;;;;;;840.38;769.08;;;;;;;20.70;54.79;96499.81;2064069;28;20236;-59
2023/07/03 11:22:24;;;;;;;955.22;871.80;;;;;;;20.56;55.31;96493.03;2067226;28;20194;-59
2023/07/03 11:23:41;;;;;;;967.08;870.58;;;;;;;20.54;55.77;96504.78;2066844;28;20608;-59
2023/07/03 11:24:55;;;;;;;912.63;825.80;;;;;;;20.39;55.82;96505.13;2066402;28;20297;-59
2023/07/03 11:26:21;;;;;;;925.40;837.90;;;;;;;20.47;55.72;96512.44;2066269;28;20253;-59
2023/07/03 11:27:54;;;;;;;899.00;816.20;;;;;;;20.20;56.04;96500.59;2067581;28;20836;-58
2023/07/03 11:28:56;;;;;;;980.08;886.97;;;;;;;20.49;55.97;96504.34;2063045;28;20222;-59
2023/07/03 11:29:58;;;;;;;920.03;832.83;;;;;;;20.83;54.67;96501.41;2068494;28;20236;-58
2023/07/03 11:31:02;;;;;;;1065.50;961.30;;;;;;;20.95;54.86;96504.78;2066205;28;20218;-59
2023/07/03 11:32:06;;;;;;;1172.20;999.90;;;;;;;21.23;54.67;96500.50;2069053;28;20677;-59
2023/07/03 11:33:08;;;;;;;1162.78;999.90;;;;;;;21.00;55.14;96502.53;2068209;28;20201;-59
2023/07/03 11:34:13;;;;;;;1218.10;999.90;;;;;;;21.39;54.92;96507.06;2067562;28;20794;-59
2023/07/03 11:35:18;;;;;;;1166.50;999.90;;;;;;;21.54;54.80;96501.19;2063013;28;20773;-59
2023/07/03 11:36:49;;;;;;;1180.05;999.90;;;;;;;21.42;54.78;96504.13;2064258;28;20277;-59
2023/07/03 11:38:06;;;;;;;900.70;819.28;;;;;;;21.75;54.18;96512.66;2066231;28;20390;-59
2023/07/03 11:39:21;;;;;;;854.65;779.15;;;;;;;21.59;54.22;96502.63;2062740;28;20266;-59
2023/07/03 11:40:36;;;;;;;785.90;720.22;;;;;;;21.54;54.35;96516.28;2062040;28;20253;-59
2023/07/03 11:41:52;;;;;;;824.47;753.00;;;;;;;21.61;54.39;96501.50;2065177;28;20722;-59
2023/07/03 11:43:09;;;;;;;917.35;835.15;;;;;;;21.47;54.60;96507.19;2065746;28;20209;-59
2023/07/03 11:44:38;;;;;;;801.70;733.22;;;;;;;21.51;54.39;96506.78;2065311;28;20218;-59
2023/07/03 11:45:39;;;;;;;929.80;848.90;;;;;;;21.80;53.84;96502.44;2063297;28;20210;-59
2023/07/03 11:46:41;;;;;;;807.17;738.05;;;;;;;22.39;52.99;96505.84;2060434;28;20199;-59
2023/07/03 11:47:42;;;;;;;1126.72;999.90;;;;;;;23.14;52.05;96500.38;2062658;28;20722;-59
2023/07/03 11:48:48;;;;;;;1026.30;933.20;;;;;;;23.44;50.94;96498.38;2063753;28;20226;-59
2023/07/03 11:49:54;;;;;;;882.05;806.67;;;;;;;23.02;51.10;96490.09;2065324;28;20238;-59
2023/07/03 11:51:07;;;;;;;885.13;814.00;;;;;;;22.84;51.57;96498.88;2067145;28;20202;-59
2023/07/03 11:52:12;;;;;;;1048.05;953.90;;;;;;;23.19;51.91;96496.47;2067136;28;20297;-59
2023/07/03 11:53:29;;;;;;;587.83;542.95;;;;;;;23.44;51.05;96497.56;2065707;28;20205;-59
2023/07/03 11:54:34;;;;;;;658.25;606.60;;;;;;;23.59;50.71;96505.81;2060416;28;20227;-60
2023/07/03 11:55:39;;;;;;;105.32;95.75;;;;;;;23.35;50.42;96499.31;2064055;28;20652;-59
2023/07/03 11:56:41;;;;;;;16.60;4.53;;;;;;;23.34;50.06;96492.28;2063661;28;20260;-59
2023/07/03 11:57:46;;;;;;;21.02;4.97;;;;;;;23.43;49.87;96494.03;2062431;28;20254;-59
2023/07/03 11:59:23;;;;;;;14.55;4.30;;;;;;;23.06;50.47;96486.16;2063235;28;20194;-59
2023/07/03 12:00:29;;;;;;;19.95;5.13;;;;;;;23.21;50.49;96498.00;2063000;28;20239;-59
2023/07/03 12:01:30;;;;;;;18.92;4.82;;;;;;;23.43;50.05;96502.03;2064915;28;20203;-60
2023/07/03 12:02:38;;;;;;;12.55;4.75;;;;;;;23.28;49.61;96487.56;2067247;28;20625;-59
2023/07/03 12:04:00;;;;;;;16.75;4.20;;;;;;;23.70;49.61;96488.78;2066206;28;20334;-59
2023/07/03 12:05:03;;;;;;;14.57;4.07;;;;;;;23.72;49.23;96487.63;2066061;28;20206;-59
2023/07/03 12:06:05;;;;;;;13.90;4.20;;;;;;;23.20;49.85;96491.00;2067492;28;20206;-59
2023/07/03 12:07:06;;;;;;;15.05;4.82;;;;;;;22.70;50.09;96488.75;2061006;28;20199;-59
2023/07/03 12:08:17;;;;;;;13.73;4.43;;;;;;;22.40;50.52;96494.22;2066160;28;20199;-59
2023/07/03 12:09:18;;;;;;;14.93;3.83;;;;;;;22.29;50.50;96492.53;2062913;28;20239;-59
2023/07/03 12:10:20;;;;;;;20.25;4.75;;;;;;;22.33;50.92;96488.63;2067274;28;20348;-59
2023/07/03 12:11:26;;;;;;;17.38;4.97;;;;;;;22.26;51.46;96481.34;2060748;28;20248;-60
2023/07/03 12:12:29;;;;;;;83.07;75.90;;;;;;;22.85;51.21;96481.13;2063824;28;20499;-59
2023/07/03 12:13:50;;;;;;;20.83;6.57;;;;;;;23.35;49.58;96485.13;2066363;28;20237;-60
2023/07/03 12:15:01;;;;;;;22.50;4.20;;;;;;;23.41;49.26;96482.69;2066664;28;20932;-59
2023/07/03 12:16:25;;;;;;;13.30;4.38;;;;;;;22.73;49.50;96488.44;2066234;28;20253;-59
2023/07/03 12:17:30;;;;;;;10.15;3.65;;;;;;;21.97;51.23;96475.13;2065482;28;20197;-60
2023/07/03 12:18:33;;;;;;;12.48;3.72;;;;;;;22.36;50.70;96495.47;2066042;28;20748;-60
2023/07/03 12:19:34;;;;;;;12.50;3.78;;;;;;;23.04;50.06;96488.97;2062243;28;20283;-60
2023/07/03 12:20:36;;;;;;;12.52;4.43;;;;;;;22.99;49.51;96480.59;2065464;28;20575;-60
2023/07/03 12:21:42;;;;;;;12.55;3.80;;;;;;;22.91;50.17;96473.34;2062109;28;20281;-61
2023/07/03 12:22:46;;;;;;;17.35;7.90;;;;;;;22.59;50.20;96477.31;2063962;28;20194;-61
2023/07/03 12:23:51;;;;;;;20.98;7.65;;;;;;;22.22;50.84;96472.84;2065492;28;20226;-61
2023/07/03 12:25:01;;;;;;;12.60;3.75;;;;;;;22.93;49.68;96476.72;2064353;28;20194;-61
2023/07/03 12:26:06;;;;;;;10.88;2.88;;;;;;;22.93;50.03;96474.06;2066693;28;20688;-61
2023/07/03 12:27:08;;;;;;;12.07;3.60;;;;;;;22.75;50.12;96470.50;2064154;28;20210;-60
2023/07/03 12:28:13;;;;;;;11.82;2.95;;;;;;;22.73;48.62;96475.13;2064359;28;20274;-61
2023/07/03 12:29:18;;;;;;;10.38;3.55;;;;;;;22.72;48.44;96473.50;2065245;28;20230;-61
2023/07/03 12:30:31;;;;;;;11.35;3.30;;;;;;;22.92;48.55;96471.53;2063926;28;20226;-61
2023/07/03 12:31:33;;;;;;;10.43;2.90;;;;;;;22.88;49.37;96473.66;2062810;28;20221;-61
2023/07/03 12:32:35;;;;;;;15.05;3.38;;;;;;;22.85;48.99;96481.94;2061293;28;20214;-61
2023/07/03 12:33:52;;;;;;;9.75;3.45;;;;;;;22.82;48.19;96467.09;2058792;28;20207;-60
2023/07/03 12:35:09;;;;;;;11.85;2.60;;;;;;;22.92;47.93;96475.03;2068306;28;20209;-61
2023/07/03 12:36:10;;;;;;;12.93;3.10;;;;;;;22.83;48.10;96473.28;2065311;28;20217;-61
2023/07/03 12:37:17;;;;;;;13.02;3.45;;;;;;;22.53;49.06;96472.59;2066621;28;20202;-61
2023/07/03 12:38:20;;;;;;;9.23;3.63;;;;;;;22.05;49.38;96477.06;2062369;28;20200;-61
2023/07/03 12:39:21;;;;;;;12.48;3.70;;;;;;;21.99;49.98;96478.50;2062440;28;20222;-61
2023/07/03 12:40:25;;;;;;;8.93;3.65;;;;;;;21.70;50.91;96465.28;2063544;28;20205;-61
2023/07/03 12:41:32;;;;;;;7.78;2.95;;;;;;;21.67;50.03;96470.88;2060998;28;20198;-61
2023/07/03 12:42:34;;;;;;;8.93;2.53;;;;;;;21.65;49.33;96475.50;2061314;28;20226;-61